Terminal Aerodrome Forecast
Issued by NWS

Home | Current Version | Previous Version | Text Only | Print | Product List | Glossary On
Versions: 1 2 3 4 5 6 7 8 9 10 11 12 13 14 15 16 17 18 19 20 21 22 23 24 25 26 27 28 29 30
000
FTUS44 KHGX 292115 AAA
TAFUTS
TAF AMD
KUTS 292115Z 2921/3018 31007KT P6SM FEW045 SCT120
     FM300000 34007KT P6SM FEW030 BKN120
     FM300500 01007KT P6SM BKN110 BKN200
     FM301600 04005KT P6SM SCT150 OVC200=

USA.gov is the U.S. government's official web portal to all federal, state and local government web resources and services.